Alton, IN

8:43 PM EDT on July 25, 2016 (GMT -0400)
north east Corydon | | Change Station

Elev 696 ft 38.26 °N, 86.12 °W | Updated 14 minutes ago

Clear
Clear
76.6 °F
Feels Like 77 °F
N
0.0
Wind Variable Wind from SSW

Today
High -- | Low -- °F
--% Chance of Precip.
Yesterday
High -- | Low -- °F
Precip. -- in
Pressure 29.98 in
Visibility 10.0 miles
Clouds Clear
Heat Index 77 °F
Dew Point 75 °F
Humidity 96%
Rainfall 0.23 in
Snow Depth Not available.
6:42 AM 9:00 PM
Waning Gibbous, 61% visible
METAR KFTK 252358Z AUTO 00000KT 10SM CLR 24/23 A2999 RMK AO2 RAB26 SLP152 P0001 60040 T02440234 10339 20237 55004
Pressure 29.98 in
Visibility 10.0 miles
Clouds Clear
Heat Index 77 °F
Dew Point 75 °F
Humidity 96%
Rainfall 0.23 in
Snow Depth Not available.
6:42 AM 9:00 PM
Waning Gibbous, 61% visible
METAR KFTK 252358Z AUTO 00000KT 10SM CLR 24/23 A2999 RMK AO2 RAB26 SLP152 P0001 60040 T02440234 10339 20237 55004
Record highs are possible for parts of the Northeast Monday and Tuesday, as parts of the central U.S. take a little breather from the worst of summer's dog day heat.

Expansive high pressure in the upper atmosphere will focus on parts of the East and West this week, sending heat indices well into the triple digits from the Mid-Atlantic states into the South.

10-Day Weather Forecast

Almanac

Astronomy

Jul. 25, 2016 Rise Set
Actual Time
Civil Twilight
Nautical Twilight
Astronomical Twilight
Moon
Length of Visible Light
Length of Day
Tomorrow will be .
, % of the Moon is Illuminated

Today's Extremes

State Highs State Lows

Community

WunderPhotos

Upload Photos

1,927,479 photos uploaded!

WunderBlog® & News

Nearby

Air Quality

  Air Quality AQ Index Pollutant
Not available.

Snow Depth

Station Depth Elevation

Earthquake Activity

City Distance Mag. Time & Date
Minimum magnitude displayed is 2.5.

Coastal Water Temperatures

Place Temperature

Stations

Nearby Weather Stations

Station Location Temp. Windchill Dew Point Humidity Wind Precip. Elev Updated Type
                   

Watches & Warnings

There are currently no watches in effect.